createdAt,value
2022-10-06T00:01:08.133Z,13.57
2022-10-06T00:03:35.158Z,13.63
2022-10-06T00:06:03.778Z,12.27
2022-10-06T00:08:32.643Z,14.13
2022-10-06T00:10:59.678Z,14.15
2022-10-06T00:13:27.432Z,13.48
2022-10-06T00:15:54.564Z,10.35
2022-10-06T00:18:21.766Z,10.25
2022-10-06T00:20:59.759Z,6.35
2022-10-06T00:23:29.089Z,6.53
2022-10-06T00:25:56.307Z,7.75
2022-10-06T00:28:23.447Z,6.10
2022-10-06T00:30:53.612Z,8.63
2022-10-06T00:33:20.786Z,9.90
2022-10-06T00:35:55.713Z,11.00
2022-10-06T00:38:22.928Z,15.70
2022-10-06T00:40:51.285Z,16.52
2022-10-06T00:43:41.734Z,11.90
2022-10-06T00:46:12.198Z,6.28
2022-10-06T00:48:39.667Z,6.43
2022-10-06T00:51:07.089Z,5.00
2022-10-06T00:53:34.209Z,8.63
2022-10-06T00:56:01.131Z,5.50
2022-10-06T00:58:28.373Z,5.43
2022-10-06T01:00:56.518Z,4.40
2022-10-06T01:03:37.695Z,8.05
2022-10-06T01:06:05.725Z,5.47
2022-10-06T01:08:34.515Z,8.93
2022-10-06T01:11:02.149Z,4.95
2022-10-06T01:13:30.608Z,6.80
2022-10-06T01:16:10.761Z,4.18
2022-10-06T01:18:41.157Z,5.07
2022-10-06T01:21:37.649Z,6.50
2022-10-06T01:24:05.152Z,7.68
2022-10-06T01:26:39.839Z,6.07
2022-10-06T01:29:07.234Z,4.95
2022-10-06T01:31:34.974Z,4.95
2022-10-06T01:34:02.401Z,3.85
2022-10-06T01:36:29.347Z,4.20
2022-10-06T01:38:56.603Z,4.13
2022-10-06T01:41:24.994Z,5.10
2022-10-06T01:43:52.170Z,6.18
2022-10-06T01:46:20.143Z,8.13
2022-10-06T01:48:47.528Z,8.32
2022-10-06T01:51:16.606Z,10.02
2022-10-06T01:53:43.615Z,13.13
2022-10-06T01:56:10.779Z,13.23
2022-10-06T01:58:38.410Z,13.65
2022-10-06T02:01:08.080Z,11.38
2022-10-06T02:03:40.353Z,20.50
2022-10-06T02:06:09.271Z,12.80
2022-10-06T02:08:36.471Z,14.93
2022-10-06T02:11:09.986Z,17.33
2022-10-06T02:13:41.109Z,22.52
2022-10-06T02:16:09.646Z,17.42
2022-10-06T02:18:37.022Z,17.98
2022-10-06T02:21:04.893Z,13.55
2022-10-06T02:23:31.925Z,8.63
2022-10-06T02:26:06.437Z,10.20
2022-10-06T02:28:35.590Z,10.43
2022-10-06T02:31:08.600Z,7.85
2022-10-06T02:33:38.303Z,10.13
2022-10-06T02:36:07.254Z,4.53
2022-10-06T02:38:34.985Z,5.93
2022-10-06T02:41:06.394Z,5.80
2022-10-06T02:43:35.443Z,6.63
2022-10-06T02:46:06.295Z,6.05
2022-10-06T02:48:34.998Z,10.95
2022-10-06T02:51:09.694Z,7.30
2022-10-06T02:53:38.677Z,24.35
2022-10-06T02:56:08.550Z,7.43
2022-10-06T02:58:35.629Z,9.20
2022-10-06T03:01:10.605Z,5.95
2022-10-06T03:03:38.093Z,9.55
2022-10-06T03:06:21.985Z,8.43
2022-10-06T03:09:03.475Z,12.52
2022-10-06T03:11:34.127Z,3.78
2022-10-06T03:14:01.568Z,10.80
2022-10-06T03:16:32.438Z,9.13
2022-10-06T03:19:01.414Z,7.85
2022-10-06T03:21:32.077Z,8.02
2022-10-06T03:23:59.734Z,6.55
2022-10-06T03:26:31.271Z,5.25
2022-10-06T03:28:59.399Z,11.05
2022-10-06T03:31:27.808Z,5.40
2022-10-06T03:33:56.978Z,4.85
2022-10-06T03:36:29.603Z,8.45
2022-10-06T03:38:56.527Z,9.73
2022-10-06T03:41:32.167Z,19.63
2022-10-06T03:44:00.569Z,6.78
2022-10-06T03:46:32.632Z,7.43
2022-10-06T03:49:00.988Z,8.90
2022-10-06T03:51:36.171Z,7.20
2022-10-06T03:54:04.012Z,12.02
2022-10-06T03:56:36.049Z,18.27
2022-10-06T03:59:06.794Z,9.77
2022-10-06T04:01:43.021Z,7.43
2022-10-06T04:04:13.041Z,8.80
2022-10-06T04:06:44.567Z,6.53
2022-10-06T04:09:17.833Z,5.07
2022-10-06T04:11:45.263Z,9.93
2022-10-06T04:14:15.639Z,11.00
2022-10-06T04:16:48.633Z,9.00
2022-10-06T04:19:20.427Z,35.97
2022-10-06T04:21:50.282Z,20.98
2022-10-06T04:24:21.242Z,25.65
2022-10-06T04:26:50.161Z,13.65
2022-10-06T04:29:18.792Z,15.02
2022-10-06T04:31:50.654Z,21.98
2022-10-06T04:34:25.686Z,25.95
2022-10-06T04:36:53.724Z,11.20
2022-10-06T04:39:20.967Z,20.50
2022-10-06T04:41:47.959Z,11.48
2022-10-06T04:44:22.610Z,23.80
2022-10-06T04:46:50.875Z,19.52
2022-10-06T04:49:20.789Z,20.15
2022-10-06T04:54:20.351Z,13.57
2022-10-06T04:56:51.563Z,25.25
2022-10-06T04:59:41.881Z,29.73
2022-10-06T05:02:09.996Z,49.65
2022-10-06T05:04:37.505Z,22.90
2022-10-06T05:07:04.601Z,19.80
2022-10-06T05:09:31.822Z,33.45
2022-10-06T05:11:58.826Z,22.55
2022-10-06T05:14:25.969Z,19.58
2022-10-06T05:16:53.366Z,12.52
2022-10-06T05:19:20.940Z,16.02
2022-10-06T05:21:47.976Z,24.55
2022-10-06T05:24:19.882Z,25.55
2022-10-06T05:26:46.901Z,24.70
2022-10-06T05:29:15.712Z,23.95
2022-10-06T05:31:45.071Z,17.65
2022-10-06T05:34:14.075Z,11.52
2022-10-06T05:36:41.417Z,8.00
2022-10-06T05:39:11.012Z,14.25
2022-10-06T05:41:43.874Z,14.65
2022-10-06T05:44:11.826Z,17.80
2022-10-06T05:46:40.968Z,28.23
2022-10-06T05:49:10.553Z,19.15
2022-10-06T05:51:42.019Z,14.82
2022-10-06T05:54:17.285Z,24.17
2022-10-06T05:56:44.501Z,15.18
2022-10-06T05:59:11.756Z,35.22
2022-10-06T06:01:42.074Z,25.63
2022-10-06T06:04:23.887Z,18.92
2022-10-06T06:06:54.648Z,28.67
2022-10-06T06:09:26.527Z,20.48
2022-10-06T06:11:55.852Z,19.48
2022-10-06T06:15:04.596Z,27.95
2022-10-06T06:17:37.479Z,17.05
2022-10-06T06:20:06.431Z,12.80
2022-10-06T06:22:33.401Z,18.33
2022-10-06T06:25:01.341Z,20.67
2022-10-06T06:27:29.678Z,20.52
2022-10-06T06:29:58.469Z,17.92
2022-10-06T06:32:27.565Z,23.73
2022-10-06T06:34:54.933Z,20.98
2022-10-06T06:37:22.074Z,18.55
2022-10-06T06:39:49.993Z,25.25
2022-10-06T06:42:18.054Z,29.85
2022-10-06T06:45:02.526Z,23.25
2022-10-06T06:47:35.543Z,28.42
2022-10-06T06:50:10.377Z,27.10
2022-10-06T06:52:39.210Z,19.65
2022-10-06T06:55:09.295Z,22.38
2022-10-06T06:57:36.614Z,21.02
2022-10-06T07:00:08.221Z,20.33
2022-10-06T07:02:38.998Z,20.00
2022-10-06T07:05:07.002Z,18.40
2022-10-06T07:07:34.081Z,19.17
2022-10-06T07:10:01.369Z,22.75
2022-10-06T07:12:31.507Z,36.30
2022-10-06T07:15:19.143Z,25.25
2022-10-06T07:18:09.371Z,20.27
2022-10-06T07:20:54.938Z,29.30
2022-10-06T07:23:41.685Z,24.35
2022-10-06T07:26:13.358Z,22.55
2022-10-06T07:28:42.547Z,18.10
2022-10-06T07:31:10.838Z,20.52
2022-10-06T07:33:40.985Z,33.33
2022-10-06T07:36:09.393Z,18.52
2022-10-06T07:38:36.800Z,22.05
2022-10-06T07:41:20.369Z,20.65
2022-10-06T07:44:00.912Z,20.98
2022-10-06T07:46:33.459Z,26.02
2022-10-06T07:49:08.852Z,23.08
2022-10-06T07:51:36.461Z,12.88
2022-10-06T07:54:04.265Z,23.60
2022-10-06T07:56:55.098Z,26.02
2022-10-06T07:59:22.360Z,20.10
2022-10-06T08:01:51.438Z,14.23
2022-10-06T08:04:18.541Z,17.52
2022-10-06T08:06:47.761Z,21.38
2022-10-06T08:09:15.018Z,20.80
2022-10-06T08:11:42.059Z,11.50
2022-10-06T08:14:09.673Z,19.02
2022-10-06T08:16:38.361Z,18.00
2022-10-06T08:19:05.374Z,22.52
2022-10-06T08:21:34.640Z,18.60
2022-10-06T08:24:02.518Z,21.23
2022-10-06T08:26:31.165Z,32.72
2022-10-06T08:29:00.729Z,27.60
2022-10-06T08:31:28.063Z,20.23
2022-10-06T08:33:56.877Z,13.13
2022-10-06T08:36:31.411Z,18.90
2022-10-06T08:38:59.296Z,13.23
2022-10-06T08:41:41.737Z,13.60
2022-10-06T08:44:39.342Z,31.05
2022-10-06T08:47:36.032Z,42.95
2022-10-06T08:50:09.975Z,19.38
2022-10-06T08:53:15.450Z,15.13
2022-10-06T08:55:50.587Z,21.25
2022-10-06T08:58:46.211Z,19.30
2022-10-06T09:01:19.409Z,12.25
2022-10-06T09:03:49.256Z,13.23
2022-10-06T09:06:45.778Z,25.02
2022-10-06T09:10:04.588Z,11.45
2022-10-06T09:12:55.532Z,16.23
2022-10-06T09:15:48.370Z,14.93
2022-10-06T09:19:06.719Z,16.80
2022-10-06T09:21:35.157Z,13.35
2022-10-06T09:24:12.341Z,21.95
2022-10-06T09:26:45.615Z,13.95
2022-10-06T09:29:13.567Z,11.88
2022-10-06T09:31:50.790Z,16.30
2022-10-06T09:34:43.013Z,18.25
2022-10-06T09:37:13.616Z,13.45
2022-10-06T09:39:46.050Z,15.60
2022-10-06T09:42:29.860Z,16.10
2022-10-06T09:45:08.104Z,12.07
2022-10-06T09:47:41.146Z,11.75
2022-10-06T09:50:37.685Z,10.60
2022-10-06T09:53:16.451Z,14.50
2022-10-06T09:55:52.307Z,13.63
2022-10-06T09:58:29.854Z,16.73
2022-10-06T10:01:02.929Z,14.07
2022-10-06T10:04:08.567Z,9.63
2022-10-06T10:06:35.383Z,11.57
2022-10-06T10:09:38.081Z,4.35
2022-10-06T10:12:28.236Z,4.75
2022-10-06T10:15:17.351Z,4.50
2022-10-06T10:17:54.008Z,3.60
2022-10-06T10:20:34.315Z,4.13
2022-10-06T10:23:30.092Z,10.50
2022-10-06T10:26:41.256Z,6.80
2022-10-06T10:29:42.898Z,3.80
2022-10-06T10:32:40.457Z,7.80
2022-10-06T10:35:26.433Z,12.07
2022-10-06T10:38:00.395Z,6.65
2022-10-06T10:40:41.072Z,4.35
2022-10-06T10:43:38.328Z,6.32
2022-10-06T10:46:38.269Z,8.27
2022-10-06T10:52:34.803Z,6.45
2022-10-06T10:55:34.946Z,7.22
2022-10-06T10:58:20.415Z,2.97
2022-10-06T11:00:52.415Z,7.65
2022-10-06T11:03:19.452Z,10.13
2022-10-06T11:06:27.289Z,8.25
2022-10-06T11:09:08.741Z,11.93
2022-10-06T11:12:22.344Z,3.58
2022-10-06T11:15:21.972Z,3.72
2022-10-06T11:17:51.133Z,12.32
2022-10-06T11:20:39.548Z,12.20
2022-10-06T11:23:25.005Z,3.05
2022-10-06T11:52:46.677Z,13.48
2022-10-06T11:55:18.113Z,4.03
2022-10-06T12:01:02.696Z,14.02
2022-10-06T12:03:45.668Z,3.13
2022-10-06T12:06:51.129Z,19.23
2022-10-06T12:09:49.627Z,14.25
2022-10-06T12:18:47.295Z,14.73
2022-10-06T12:21:45.914Z,15.30
2022-10-06T12:25:02.292Z,6.45
2022-10-06T12:28:28.546Z,4.25
2022-10-06T12:31:29.424Z,6.05
2022-10-06T12:33:56.751Z,3.72
2022-10-06T12:36:28.514Z,6.07
2022-10-06T12:39:21.250Z,3.22
2022-10-06T12:42:07.321Z,3.17
2022-10-06T12:44:43.126Z,4.93
2022-10-06T12:47:23.122Z,9.25
2022-10-06T12:49:58.845Z,5.10
2022-10-06T12:52:59.119Z,5.03
2022-10-06T12:56:03.009Z,5.72
2022-10-06T12:58:32.574Z,10.15
2022-10-06T13:01:10.540Z,5.82
2022-10-06T13:03:37.795Z,8.20
2022-10-06T13:06:08.013Z,4.07
2022-10-06T13:08:37.134Z,5.00
2022-10-06T13:11:21.997Z,5.63
2022-10-06T13:14:15.288Z,5.05
2022-10-06T13:16:45.761Z,4.65
2022-10-06T13:21:49.938Z,7.70
2022-10-06T13:24:25.990Z,15.35
2022-10-06T13:26:54.106Z,13.82
2022-10-06T13:29:24.142Z,30.73
2022-10-06T13:31:53.777Z,8.48
2022-10-06T13:34:43.371Z,20.20
2022-10-06T13:37:15.313Z,3.45
2022-10-06T13:39:42.446Z,17.88
2022-10-06T13:42:18.428Z,5.05
2022-10-06T13:44:57.190Z,6.38
2022-10-06T13:47:25.918Z,9.98
2022-10-06T13:50:06.177Z,3.90
2022-10-06T13:52:53.426Z,6.72
2022-10-06T13:55:28.231Z,14.85
2022-10-06T13:58:18.045Z,6.95
2022-10-06T14:01:01.102Z,30.05
2022-10-06T14:03:36.980Z,8.15
2022-10-06T14:06:19.342Z,9.10
2022-10-06T14:08:55.188Z,10.95
2022-10-06T14:11:28.526Z,13.15
2022-10-06T14:14:01.407Z,11.73
2022-10-06T14:16:29.760Z,8.85
2022-10-06T14:19:00.379Z,16.15
2022-10-06T14:21:53.759Z,5.43
2022-10-06T14:24:24.180Z,3.67
2022-10-06T14:29:19.314Z,5.78
2022-10-06T14:31:46.962Z,6.07
2022-10-06T14:34:16.589Z,6.90
2022-10-06T14:36:48.842Z,3.15
2022-10-06T14:39:16.138Z,10.10
2022-10-06T14:41:43.283Z,12.63
2022-10-06T14:44:11.718Z,4.88
2022-10-06T14:46:43.919Z,9.32
2022-10-06T14:49:13.599Z,3.97
2022-10-06T14:51:42.417Z,10.48
2022-10-06T14:54:10.897Z,7.47
2022-10-06T14:56:39.249Z,35.65
2022-10-06T14:59:08.936Z,9.38
2022-10-06T15:01:37.747Z,9.55
2022-10-06T15:04:11.541Z,10.85
2022-10-06T15:06:58.214Z,7.35
2022-10-06T15:09:25.136Z,11.98
2022-10-06T15:11:53.899Z,7.97
2022-10-06T15:14:24.505Z,21.35
2022-10-06T15:16:51.893Z,9.43
2022-10-06T15:19:18.931Z,50.60
2022-10-06T15:21:45.930Z,23.92
2022-10-06T15:24:15.503Z,11.63
2022-10-06T15:27:02.018Z,10.70
2022-10-06T15:29:29.322Z,12.55
2022-10-06T15:31:56.712Z,12.88
2022-10-06T15:34:26.565Z,10.35
2022-10-06T15:36:54.661Z,20.20
2022-10-06T15:39:26.595Z,12.57
2022-10-06T15:41:54.173Z,23.90
2022-10-06T15:44:21.901Z,14.23
2022-10-06T15:46:51.063Z,14.70
2022-10-06T15:49:23.199Z,15.07
2022-10-06T15:51:56.870Z,26.48
2022-10-06T15:54:26.198Z,14.65
2022-10-06T15:56:55.613Z,23.35
2022-10-06T15:59:26.482Z,18.38
2022-10-06T16:02:00.369Z,15.43
2022-10-06T16:04:58.641Z,14.20
2022-10-06T16:07:25.597Z,15.00
2022-10-06T16:09:52.817Z,8.90
2022-10-06T16:12:22.357Z,10.35
2022-10-06T16:14:49.525Z,13.35
2022-10-06T16:17:17.171Z,8.27
2022-10-06T16:19:44.485Z,17.27
2022-10-06T16:22:17.311Z,11.68
2022-10-06T16:24:44.566Z,21.52
2022-10-06T16:27:13.217Z,25.58
2022-10-06T16:29:40.274Z,16.23
2022-10-06T16:32:07.213Z,10.27
2022-10-06T16:34:34.146Z,9.23
2022-10-06T16:37:01.053Z,7.60
2022-10-06T16:39:28.086Z,9.70
2022-10-06T16:41:55.032Z,13.70
2022-10-06T16:44:22.089Z,7.68
2022-10-06T16:46:49.082Z,11.50
2022-10-06T16:49:16.115Z,9.88
2022-10-06T16:51:45.822Z,12.43
2022-10-06T16:54:14.577Z,6.75
2022-10-06T16:56:44.661Z,8.93
2022-10-06T16:59:19.930Z,15.47
2022-10-06T17:01:47.672Z,7.05
2022-10-06T17:04:18.153Z,4.15
2022-10-06T17:06:47.784Z,7.93
2022-10-06T17:09:17.282Z,5.10
2022-10-06T17:11:53.000Z,11.80
2022-10-06T17:14:21.579Z,3.75
2022-10-06T17:16:50.958Z,8.23
2022-10-06T17:19:19.597Z,7.65
2022-10-06T17:21:49.521Z,6.00
2022-10-06T17:26:58.162Z,2.38
2022-10-06T17:29:26.250Z,5.45
2022-10-06T17:31:56.441Z,5.05
2022-10-06T17:34:27.820Z,5.65
2022-10-06T17:36:58.715Z,9.70
2022-10-06T17:39:25.689Z,8.40
2022-10-06T17:41:53.755Z,4.13
2022-10-06T17:44:23.543Z,4.40
2022-10-06T17:46:56.513Z,4.28
2022-10-06T17:49:24.800Z,5.97
2022-10-06T17:51:53.700Z,5.93
2022-10-06T17:54:23.481Z,16.02
2022-10-06T17:56:53.276Z,6.68
2022-10-06T17:59:22.798Z,12.30
2022-10-06T18:01:51.486Z,3.63
2022-10-06T18:04:19.016Z,4.70
2022-10-06T18:06:47.498Z,5.40
2022-10-06T18:09:15.962Z,4.80
2022-10-06T18:11:44.532Z,8.52
2022-10-06T18:14:16.857Z,8.18
2022-10-06T18:16:57.725Z,10.02
2022-10-06T18:19:32.473Z,8.10
2022-10-06T18:22:10.314Z,6.95
2022-10-06T18:24:38.228Z,4.07
2022-10-06T18:27:06.689Z,11.68
2022-10-06T18:29:38.638Z,7.35
2022-10-06T18:36:13.005Z,4.18
2022-10-06T18:37:41.752Z,13.88
2022-10-06T18:40:10.143Z,3.80
2022-10-06T18:42:38.638Z,6.43
2022-10-06T18:45:27.151Z,3.67
2022-10-06T18:48:12.903Z,7.07
2022-10-06T18:50:40.255Z,4.85
2022-10-06T18:53:07.384Z,8.98
2022-10-06T18:55:35.262Z,10.02
2022-10-06T18:58:02.430Z,14.20
2022-10-06T19:00:29.301Z,12.27
2022-10-06T19:02:57.029Z,5.57
2022-10-06T19:05:24.531Z,4.10
2022-10-06T19:07:54.000Z,14.18
2022-10-06T19:10:21.054Z,6.20
2022-10-06T19:12:48.565Z,6.45
2022-10-06T19:15:20.231Z,7.82
2022-10-06T19:17:47.938Z,5.20
2022-10-06T19:20:14.912Z,6.93
2022-10-06T19:22:43.552Z,9.32
2022-10-06T19:25:11.343Z,4.57
2022-10-06T19:27:38.407Z,3.63
2022-10-06T19:30:06.149Z,4.05
2022-10-06T19:32:33.415Z,7.72
2022-10-06T19:35:00.867Z,8.30
2022-10-06T19:37:30.002Z,5.78
2022-10-06T19:39:57.971Z,4.95
2022-10-06T19:42:43.727Z,7.95
2022-10-06T19:45:12.247Z,8.48
2022-10-06T19:47:40.338Z,5.45
2022-10-06T19:50:12.035Z,9.68
2022-10-06T19:52:40.755Z,3.47
2022-10-06T19:55:07.905Z,4.28
2022-10-06T19:57:35.050Z,5.00
2022-10-06T20:00:02.055Z,3.70
2022-10-06T20:02:42.370Z,8.80
2022-10-06T20:05:11.074Z,4.70
2022-10-06T20:07:38.052Z,9.90
2022-10-06T20:10:07.006Z,3.95
2022-10-06T20:12:36.680Z,4.95
2022-10-06T20:15:06.931Z,4.40
2022-10-06T20:17:35.540Z,3.83
2022-10-06T20:20:04.458Z,3.53
2022-10-06T20:22:31.878Z,4.32
2022-10-06T20:24:59.050Z,5.13
2022-10-06T20:27:26.063Z,7.10
2022-10-06T20:29:53.965Z,13.95
2022-10-06T20:32:21.504Z,6.45
2022-10-06T20:34:48.419Z,5.03
2022-10-06T20:37:15.361Z,8.80
2022-10-06T20:40:01.248Z,4.57
2022-10-06T20:42:28.290Z,8.05
2022-10-06T20:44:55.278Z,4.90
2022-10-06T20:47:22.806Z,3.90
2022-10-06T20:49:55.520Z,10.93
2022-10-06T20:52:24.090Z,5.93
2022-10-06T20:54:51.395Z,7.30
2022-10-06T20:57:18.509Z,3.72
2022-10-06T20:59:46.430Z,4.72
2022-10-06T21:02:13.694Z,8.20
2022-10-06T21:04:46.174Z,8.40
2022-10-06T21:07:13.202Z,5.15
2022-10-06T21:09:40.219Z,6.22
2022-10-06T21:12:07.370Z,9.45
2022-10-06T21:14:36.430Z,5.10
2022-10-06T21:17:03.343Z,5.10
2022-10-06T21:19:30.356Z,14.82
2022-10-06T21:21:57.291Z,4.95
2022-10-06T21:24:24.358Z,6.25
2022-10-06T21:26:52.955Z,4.10
2022-10-06T21:29:20.982Z,5.88
2022-10-06T21:31:48.171Z,6.57
2022-10-06T21:34:15.275Z,8.73
2022-10-06T21:36:43.622Z,6.65
2022-10-06T21:39:12.201Z,4.57
2022-10-06T21:41:39.905Z,8.30
2022-10-06T21:44:12.989Z,5.55
2022-10-06T21:46:47.849Z,6.38
2022-10-06T21:49:18.152Z,4.03
2022-10-06T21:51:47.859Z,5.90
2022-10-06T21:54:15.802Z,7.28
2022-10-06T21:56:42.826Z,12.60
2022-10-06T21:59:10.422Z,8.25
2022-10-06T22:01:40.277Z,5.00
2022-10-06T22:04:08.119Z,8.57
2022-10-06T22:06:36.849Z,9.20
2022-10-06T22:09:06.518Z,4.75
2022-10-06T22:11:39.373Z,6.15
2022-10-06T22:14:10.867Z,5.22
2022-10-06T22:16:38.410Z,5.20
2022-10-06T22:19:09.118Z,8.95
2022-10-06T22:21:44.170Z,5.32
2022-10-06T22:24:13.590Z,15.10
2022-10-06T22:26:42.050Z,6.95
2022-10-06T22:29:11.996Z,3.92
2022-10-06T22:31:40.784Z,8.82
2022-10-06T22:34:09.663Z,5.05
2022-10-06T22:36:36.632Z,6.32
2022-10-06T22:39:04.232Z,4.57
2022-10-06T22:41:31.521Z,5.78
2022-10-06T22:43:59.698Z,8.02
2022-10-06T22:46:31.753Z,5.88
2022-10-06T22:48:58.866Z,8.07
2022-10-06T22:51:25.961Z,13.25
2022-10-06T22:53:58.553Z,3.63
2022-10-06T22:56:31.888Z,7.85
2022-10-06T22:59:00.150Z,4.45
